WTB9CK EDDS-EGFF
Flight info
| Callsign | WTB9CK |
|---|---|
| Flight time | 1h 29m |
| Altitude | 38000 |
| Route | VESID4B VESID Y127 ADENU L608 DENUT L610 KOPUL Q63 ICTAM |
| Aircraft | A20N/M-SDE2E3FGHIRWXY/LB1 |
Departure
| Time | 2026-05-05 15:03 |
|---|---|
| Airport | Stuttgart Airport (EDDS) |
Arrival
| Time | 2026-05-05 16:32 |
|---|---|
| Airport | Cardiff International Airport (EGFF) |
| Time | Latitude | Longitude | Altitude | Speed | Heading |
|---|---|---|---|---|---|
| 2026-05-05 14:43 | 48.68956 | 9.20297 | 1282 ft | 0 kts | 164° |
| 2026-05-05 14:54 | 48.68953 | 9.20298 | 1282 ft | 1 kts | 164° |
| 2026-05-05 14:54 | 48.68918 | 9.20317 | 1281 ft | 8 kts | 145° |
| 2026-05-05 14:54 | 48.68912 | 9.20436 | 1277 ft | 15 kts | 72° |
| 2026-05-05 14:55 | 48.68945 | 9.20612 | 1271 ft | 19 kts | 73° |
| 2026-05-05 14:55 | 48.68982 | 9.20809 | 1265 ft | 18 kts | 73° |
| 2026-05-05 14:55 | 48.69015 | 9.20979 | 1260 ft | 16 kts | 73° |
| 2026-05-05 14:55 | 48.69047 | 9.21148 | 1255 ft | 17 kts | 73° |
| 2026-05-05 14:56 | 48.69081 | 9.21329 | 1251 ft | 17 kts | 74° |
| 2026-05-05 14:56 | 48.69114 | 9.21500 | 1248 ft | 17 kts | 74° |
| 2026-05-05 14:56 | 48.69149 | 9.21687 | 1245 ft | 19 kts | 73° |
| 2026-05-05 14:56 | 48.69188 | 9.21888 | 1241 ft | 17 kts | 74° |
| 2026-05-05 14:57 | 48.69223 | 9.22074 | 1237 ft | 19 kts | 74° |
| 2026-05-05 14:57 | 48.69263 | 9.22282 | 1232 ft | 21 kts | 73° |
| 2026-05-05 14:57 | 48.69305 | 9.22513 | 1226 ft | 22 kts | 73° |
| 2026-05-05 14:57 | 48.69343 | 9.22709 | 1220 ft | 18 kts | 73° |
| 2026-05-05 14:58 | 48.69377 | 9.22890 | 1214 ft | 18 kts | 73° |
| 2026-05-05 14:58 | 48.69416 | 9.23093 | 1209 ft | 21 kts | 73° |
| 2026-05-05 14:58 | 48.69459 | 9.23322 | 1203 ft | 23 kts | 73° |
| 2026-05-05 14:58 | 48.69505 | 9.23559 | 1199 ft | 23 kts | 74° |
| 2026-05-05 14:59 | 48.69548 | 9.23794 | 1195 ft | 22 kts | 73° |
| 2026-05-05 14:59 | 48.69588 | 9.24004 | 1191 ft | 19 kts | 75° |
| 2026-05-05 14:59 | 48.69606 | 9.24138 | 1188 ft | 11 kts | 99° |
| 2026-05-05 14:59 | 48.69577 | 9.24240 | 1185 ft | 10 kts | 119° |
| 2026-05-05 15:00 | 48.69534 | 9.24298 | 1183 ft | 8 kts | 163° |
| 2026-05-05 15:00 | 48.69510 | 9.24307 | 1183 ft | 0 kts | 165° |
| 2026-05-05 15:01 | 48.69499 | 9.24311 | 1183 ft | 7 kts | 166° |
| 2026-05-05 15:01 | 48.69434 | 9.24338 | 1181 ft | 11 kts | 165° |
| 2026-05-05 15:01 | 48.69389 | 9.24315 | 1181 ft | 7 kts | 246° |
| 2026-05-05 15:01 | 48.69384 | 9.24286 | 1181 ft | 0 kts | 255° |
| 2026-05-05 15:02 | 48.69382 | 9.24275 | 1182 ft | 6 kts | 253° |
| 2026-05-05 15:02 | 48.69303 | 9.23863 | 1191 ft | 75 kts | 254° |
| 2026-05-05 15:02 | 48.69100 | 9.22790 | 1217 ft | 134 kts | 253° |
| 2026-05-05 15:02 | 48.68797 | 9.21202 | 1351 ft | 171 kts | 255° |
| 2026-05-05 15:03 | 48.68469 | 9.19486 | 1960 ft | 173 kts | 254° |
| 2026-05-05 15:03 | 48.68130 | 9.17753 | 2660 ft | 174 kts | 255° |
| 2026-05-05 15:03 | 48.67804 | 9.16012 | 3323 ft | 175 kts | 255° |
| 2026-05-05 15:03 | 48.67459 | 9.14200 | 3724 ft | 190 kts | 254° |
| 2026-05-05 15:04 | 48.67076 | 9.12250 | 4330 ft | 195 kts | 255° |
| 2026-05-05 15:04 | 48.66959 | 9.10272 | 5032 ft | 195 kts | 280° |
| 2026-05-05 15:04 | 48.67553 | 9.08414 | 5662 ft | 203 kts | 307° |
| 2026-05-05 15:04 | 48.68671 | 9.07067 | 6278 ft | 210 kts | 326° |
| 2026-05-05 15:05 | 48.71468 | 9.05407 | 7301 ft | 231 kts | 339° |
| 2026-05-05 15:05 | 48.73053 | 9.04636 | 7645 ft | 250 kts | 339° |
| 2026-05-05 15:05 | 48.74785 | 9.03778 | 8006 ft | 270 kts | 339° |
| 2026-05-05 15:06 | 48.76623 | 9.02853 | 8476 ft | 286 kts | 339° |
| 2026-05-05 15:06 | 48.78540 | 9.01879 | 9176 ft | 294 kts | 338° |
| 2026-05-05 15:06 | 48.80449 | 9.00814 | 9970 ft | 295 kts | 337° |
| 2026-05-05 15:06 | 48.82383 | 8.99681 | 10573 ft | 305 kts | 337° |
| 2026-05-05 15:07 | 48.84377 | 8.98500 | 11075 ft | 317 kts | 336° |
| 2026-05-05 15:07 | 48.86442 | 8.97278 | 11783 ft | 322 kts | 337° |
| 2026-05-05 15:07 | 48.88537 | 8.96041 | 12480 ft | 326 kts | 336° |
| 2026-05-05 15:07 | 48.90660 | 8.94787 | 13168 ft | 330 kts | 337° |
| 2026-05-05 15:08 | 48.92783 | 8.93535 | 13837 ft | 333 kts | 338° |
| 2026-05-05 15:08 | 48.94949 | 8.92255 | 14499 ft | 338 kts | 337° |
| 2026-05-05 15:08 | 48.97150 | 8.90952 | 15149 ft | 342 kts | 337° |
| 2026-05-05 15:08 | 48.99395 | 8.89613 | 15818 ft | 346 kts | 337° |
| 2026-05-05 15:09 | 49.01612 | 8.88289 | 16418 ft | 350 kts | 338° |
| 2026-05-05 15:09 | 49.03902 | 8.86918 | 17002 ft | 354 kts | 337° |
| 2026-05-05 15:09 | 49.06183 | 8.85552 | 17578 ft | 357 kts | 337° |
| 2026-05-05 15:09 | 49.08498 | 8.84164 | 18141 ft | 361 kts | 337° |
| 2026-05-05 15:10 | 49.10840 | 8.82757 | 18708 ft | 364 kts | 338° |
| 2026-05-05 15:10 | 49.13229 | 8.81323 | 19311 ft | 367 kts | 338° |
| 2026-05-05 15:10 | 49.15630 | 8.80090 | 19927 ft | 370 kts | 347° |
| 2026-05-05 15:10 | 49.18092 | 8.79567 | 20477 ft | 373 kts | 358° |
| 2026-05-05 15:11 | 49.20682 | 8.79726 | 21020 ft | 376 kts | 5° |
| 2026-05-05 15:11 | 49.23286 | 8.80117 | 21555 ft | 380 kts | 6° |
| 2026-05-05 15:11 | 49.25950 | 8.80541 | 22104 ft | 383 kts | 6° |
| 2026-05-05 15:11 | 49.28599 | 8.80933 | 22642 ft | 386 kts | 6° |
| 2026-05-05 15:12 | 49.31275 | 8.81307 | 23172 ft | 389 kts | 6° |
| 2026-05-05 15:12 | 49.33982 | 8.81675 | 23679 ft | 393 kts | 6° |
| 2026-05-05 15:12 | 49.36698 | 8.82045 | 24198 ft | 396 kts | 6° |
| 2026-05-05 15:12 | 49.39439 | 8.82419 | 24678 ft | 400 kts | 6° |
| 2026-05-05 15:13 | 49.42213 | 8.82799 | 25163 ft | 403 kts | 6° |
| 2026-05-05 15:13 | 49.45013 | 8.83184 | 25629 ft | 407 kts | 6° |
| 2026-05-05 15:13 | 49.47855 | 8.83575 | 26088 ft | 410 kts | 6° |
| 2026-05-05 15:13 | 49.50698 | 8.83966 | 26538 ft | 413 kts | 6° |
| 2026-05-05 15:14 | 49.53561 | 8.84360 | 26973 ft | 416 kts | 6° |
| 2026-05-05 15:14 | 49.56450 | 8.84511 | 27356 ft | 420 kts | 353° |
| 2026-05-05 15:14 | 49.59248 | 8.83203 | 27709 ft | 422 kts | 329° |
| 2026-05-05 15:14 | 49.61511 | 8.80444 | 28119 ft | 419 kts | 309° |
| 2026-05-05 15:15 | 49.63376 | 8.76928 | 28535 ft | 420 kts | 306° |
| 2026-05-05 15:15 | 49.65173 | 8.73429 | 28863 ft | 424 kts | 306° |
| 2026-05-05 15:15 | 49.67027 | 8.69887 | 29200 ft | 427 kts | 307° |
| 2026-05-05 15:15 | 49.68923 | 8.66327 | 29526 ft | 430 kts | 307° |
| 2026-05-05 15:16 | 49.70851 | 8.62783 | 29861 ft | 433 kts | 309° |
| 2026-05-05 15:16 | 49.72916 | 8.59369 | 30199 ft | 436 kts | 313° |
| 2026-05-05 15:16 | 49.75115 | 8.56094 | 30498 ft | 439 kts | 315° |
| 2026-05-05 15:16 | 49.77353 | 8.52858 | 30787 ft | 442 kts | 315° |
| 2026-05-05 15:17 | 49.79568 | 8.49578 | 31079 ft | 443 kts | 311° |
| 2026-05-05 15:17 | 49.81546 | 8.45938 | 31362 ft | 442 kts | 303° |
| 2026-05-05 15:17 | 49.83185 | 8.41988 | 31637 ft | 441 kts | 296° |
| 2026-05-05 15:17 | 49.84499 | 8.37708 | 31911 ft | 439 kts | 288° |
| 2026-05-05 15:18 | 49.85452 | 8.33192 | 32165 ft | 438 kts | 280° |
| 2026-05-05 15:18 | 49.86025 | 8.28619 | 32419 ft | 436 kts | 274° |
| 2026-05-05 15:18 | 49.86409 | 8.23901 | 32700 ft | 437 kts | 272° |
| 2026-05-05 15:18 | 49.86752 | 8.19264 | 32940 ft | 438 kts | 272° |
| 2026-05-05 15:19 | 49.87100 | 8.14578 | 33165 ft | 440 kts | 273° |
| 2026-05-05 15:19 | 49.87453 | 8.09885 | 33386 ft | 441 kts | 273° |
| 2026-05-05 15:19 | 49.87818 | 8.05103 | 33637 ft | 442 kts | 273° |
| 2026-05-05 15:19 | 49.88180 | 8.00399 | 33969 ft | 441 kts | 273° |
| 2026-05-05 15:20 | 49.88542 | 7.95706 | 34289 ft | 440 kts | 273° |
| 2026-05-05 15:20 | 49.88900 | 7.91021 | 34570 ft | 439 kts | 273° |
| 2026-05-05 15:20 | 49.89256 | 7.86342 | 34861 ft | 438 kts | 272° |
| 2026-05-05 15:20 | 49.89608 | 7.81669 | 35062 ft | 438 kts | 273° |
| 2026-05-05 15:21 | 49.89959 | 7.76998 | 35257 ft | 438 kts | 272° |
| 2026-05-05 15:21 | 49.90376 | 7.72315 | 35448 ft | 439 kts | 276° |
| 2026-05-05 15:21 | 49.90954 | 7.67720 | 35631 ft | 440 kts | 279° |
| 2026-05-05 15:21 | 49.91654 | 7.63089 | 35785 ft | 440 kts | 279° |
| 2026-05-05 15:22 | 49.92365 | 7.58504 | 35946 ft | 439 kts | 280° |
| 2026-05-05 15:22 | 49.93077 | 7.53913 | 36084 ft | 439 kts | 280° |
| 2026-05-05 15:22 | 49.93785 | 7.49324 | 36223 ft | 438 kts | 280° |
| 2026-05-05 15:22 | 49.94488 | 7.44742 | 36370 ft | 437 kts | 280° |
| 2026-05-05 15:23 | 49.95184 | 7.40181 | 36503 ft | 436 kts | 280° |
| 2026-05-05 15:23 | 49.95878 | 7.35616 | 36684 ft | 436 kts | 280° |
| 2026-05-05 15:23 | 49.96576 | 7.31006 | 36835 ft | 435 kts | 279° |
| 2026-05-05 15:23 | 49.97220 | 7.26736 | 37012 ft | 435 kts | 279° |
| 2026-05-05 15:24 | 49.97905 | 7.22181 | 37170 ft | 435 kts | 279° |
| 2026-05-05 15:24 | 49.98587 | 7.17633 | 37326 ft | 434 kts | 279° |
| 2026-05-05 15:24 | 49.99270 | 7.13064 | 37467 ft | 434 kts | 279° |
| 2026-05-05 15:24 | 49.99952 | 7.08477 | 37596 ft | 434 kts | 279° |
| 2026-05-05 15:25 | 50.00632 | 7.03903 | 37750 ft | 434 kts | 279° |
| 2026-05-05 15:25 | 50.02190 | 6.94853 | 37824 ft | 437 kts | 285° |
| 2026-05-05 15:26 | 50.04412 | 6.86037 | 37840 ft | 440 kts | 292° |
| 2026-05-05 15:26 | 50.07243 | 6.77607 | 37843 ft | 442 kts | 296° |
| 2026-05-05 15:27 | 50.10230 | 6.69263 | 37842 ft | 442 kts | 296° |
| 2026-05-05 15:27 | 50.13137 | 6.61079 | 37825 ft | 442 kts | 296° |
| 2026-05-05 15:28 | 50.16228 | 6.52784 | 37823 ft | 444 kts | 301° |
| 2026-05-05 15:28 | 50.19938 | 6.45053 | 37816 ft | 447 kts | 308° |
| 2026-05-05 15:29 | 50.24259 | 6.38131 | 37809 ft | 449 kts | 316° |
| 2026-05-05 15:29 | 50.29057 | 6.31823 | 37816 ft | 449 kts | 318° |
| 2026-05-05 15:30 | 50.33846 | 6.25655 | 37817 ft | 449 kts | 317° |
| 2026-05-05 15:30 | 50.38635 | 6.19440 | 37816 ft | 448 kts | 317° |
| 2026-05-05 15:31 | 50.43403 | 6.13221 | 37810 ft | 448 kts | 317° |
| 2026-05-05 15:31 | 50.48186 | 6.06961 | 37817 ft | 448 kts | 317° |
| 2026-05-05 15:32 | 50.52973 | 6.00673 | 37819 ft | 447 kts | 317° |
| 2026-05-05 15:32 | 50.57708 | 5.94439 | 37826 ft | 447 kts | 317° |
| 2026-05-05 15:33 | 50.62035 | 5.87583 | 37830 ft | 442 kts | 306° |
| 2026-05-05 15:33 | 50.65347 | 5.79552 | 37834 ft | 437 kts | 294° |
| 2026-05-05 15:34 | 50.67544 | 5.70722 | 37849 ft | 433 kts | 283° |
| 2026-05-05 15:34 | 50.69252 | 5.61653 | 37846 ft | 433 kts | 284° |
| 2026-05-05 15:35 | 50.71073 | 5.52649 | 37850 ft | 433 kts | 285° |
| 2026-05-05 15:35 | 50.72902 | 5.43586 | 37847 ft | 433 kts | 285° |
| 2026-05-05 15:36 | 50.74707 | 5.34570 | 37836 ft | 433 kts | 284° |
| 2026-05-05 15:36 | 50.76504 | 5.25544 | 37846 ft | 432 kts | 284° |
| 2026-05-05 15:37 | 50.78293 | 5.16512 | 37840 ft | 431 kts | 284° |
| 2026-05-05 15:37 | 50.80074 | 5.07475 | 37846 ft | 431 kts | 284° |
| 2026-05-05 15:38 | 50.81823 | 4.98473 | 37843 ft | 431 kts | 284° |
| 2026-05-05 15:38 | 50.83544 | 4.89426 | 37850 ft | 430 kts | 283° |
| 2026-05-05 15:39 | 50.85247 | 4.80433 | 37855 ft | 431 kts | 284° |
| 2026-05-05 15:39 | 50.86956 | 4.71369 | 37862 ft | 431 kts | 284° |
| 2026-05-05 15:40 | 50.88678 | 4.62279 | 37860 ft | 432 kts | 285° |
| 2026-05-05 15:40 | 50.90832 | 4.53414 | 37875 ft | 434 kts | 292° |
| 2026-05-05 15:41 | 50.93617 | 4.44996 | 37875 ft | 436 kts | 298° |
| 2026-05-05 15:41 | 50.96759 | 4.36799 | 37881 ft | 436 kts | 299° |
| 2026-05-05 15:42 | 50.99916 | 4.28589 | 37876 ft | 435 kts | 298° |
| 2026-05-05 15:42 | 51.03056 | 4.20371 | 37876 ft | 435 kts | 298° |
| 2026-05-05 15:43 | 51.06153 | 4.12230 | 37875 ft | 435 kts | 298° |
| 2026-05-05 15:43 | 51.09282 | 4.03971 | 37877 ft | 435 kts | 298° |
| 2026-05-05 15:44 | 51.12387 | 3.95755 | 37875 ft | 435 kts | 298° |
| 2026-05-05 15:44 | 51.15486 | 3.87520 | 37876 ft | 434 kts | 298° |
| 2026-05-05 15:45 | 51.18571 | 3.79296 | 37877 ft | 434 kts | 298° |
| 2026-05-05 15:45 | 51.21458 | 3.70955 | 37882 ft | 431 kts | 293° |
| 2026-05-05 15:46 | 51.23729 | 3.62138 | 37878 ft | 429 kts | 286° |
| 2026-05-05 15:46 | 51.25315 | 3.53041 | 37879 ft | 427 kts | 280° |
| 2026-05-05 15:47 | 51.26539 | 3.43841 | 37885 ft | 426 kts | 279° |
| 2026-05-05 15:47 | 51.27753 | 3.34566 | 37889 ft | 426 kts | 279° |
| 2026-05-05 15:48 | 51.28943 | 3.25299 | 37895 ft | 426 kts | 279° |
| 2026-05-05 15:48 | 51.30122 | 3.16053 | 37894 ft | 426 kts | 279° |
| 2026-05-05 15:49 | 51.31290 | 3.06848 | 37902 ft | 425 kts | 279° |
| 2026-05-05 15:49 | 51.32455 | 2.97587 | 37903 ft | 425 kts | 279° |
| 2026-05-05 15:50 | 51.33603 | 2.88403 | 37904 ft | 426 kts | 279° |
| 2026-05-05 15:50 | 51.34751 | 2.79153 | 37910 ft | 426 kts | 279° |
| 2026-05-05 15:51 | 51.35905 | 2.69825 | 37906 ft | 427 kts | 279° |
| 2026-05-05 15:51 | 51.37050 | 2.60563 | 37903 ft | 427 kts | 279° |
| 2026-05-05 15:52 | 51.38186 | 2.51281 | 37900 ft | 428 kts | 279° |
| 2026-05-05 15:52 | 51.39320 | 2.41944 | 37904 ft | 427 kts | 279° |
| 2026-05-05 15:53 | 51.40440 | 2.32644 | 37909 ft | 428 kts | 278° |
| 2026-05-05 15:53 | 51.41548 | 2.23415 | 37907 ft | 428 kts | 279° |
| 2026-05-05 15:54 | 51.42694 | 2.14074 | 37911 ft | 429 kts | 279° |
| 2026-05-05 15:54 | 51.43825 | 2.04752 | 37911 ft | 430 kts | 279° |
| 2026-05-05 15:55 | 51.44955 | 1.95327 | 37916 ft | 430 kts | 279° |
| 2026-05-05 15:55 | 51.46052 | 1.85990 | 37918 ft | 430 kts | 279° |
| 2026-05-05 15:56 | 51.47143 | 1.76590 | 37924 ft | 430 kts | 278° |
| 2026-05-05 15:56 | 51.48216 | 1.67235 | 37924 ft | 430 kts | 279° |
| 2026-05-05 15:57 | 51.49295 | 1.57792 | 37915 ft | 430 kts | 279° |
| 2026-05-05 15:57 | 51.50367 | 1.48371 | 37924 ft | 430 kts | 279° |
| 2026-05-05 15:58 | 51.51420 | 1.39011 | 37926 ft | 430 kts | 279° |
| 2026-05-05 15:58 | 51.52475 | 1.29558 | 37930 ft | 430 kts | 278° |
| 2026-05-05 15:59 | 51.53507 | 1.20164 | 37926 ft | 430 kts | 277° |
| 2026-05-05 15:59 | 51.54100 | 1.10622 | 37927 ft | 429 kts | 270° |
| 2026-05-05 16:00 | 51.54081 | 1.01152 | 37930 ft | 428 kts | 267° |
| 2026-05-05 16:00 | 51.53954 | 0.91562 | 37933 ft | 429 kts | 267° |
| 2026-05-05 16:01 | 51.53823 | 0.82089 | 37937 ft | 428 kts | 267° |
| 2026-05-05 16:01 | 51.53682 | 0.72507 | 37934 ft | 428 kts | 268° |
| 2026-05-05 16:02 | 51.53537 | 0.63032 | 37928 ft | 428 kts | 268° |
| 2026-05-05 16:02 | 51.53384 | 0.53505 | 37940 ft | 428 kts | 268° |
| 2026-05-05 16:03 | 51.53219 | 0.43939 | 38008 ft | 429 kts | 267° |
| 2026-05-05 16:03 | 51.53135 | 0.39173 | 37819 ft | 428 kts | 268° |
| 2026-05-05 16:03 | 51.53106 | 0.34424 | 37626 ft | 426 kts | 269° |
| 2026-05-05 16:03 | 51.53126 | 0.29706 | 37440 ft | 424 kts | 269° |
| 2026-05-05 16:04 | 51.53155 | 0.24998 | 37243 ft | 421 kts | 269° |
| 2026-05-05 16:04 | 51.53178 | 0.20267 | 37051 ft | 419 kts | 269° |
| 2026-05-05 16:04 | 51.53195 | 0.15615 | 36862 ft | 416 kts | 268° |
| 2026-05-05 16:04 | 51.53207 | 0.10974 | 36671 ft | 415 kts | 268° |
| 2026-05-05 16:05 | 51.53215 | 0.06364 | 36482 ft | 415 kts | 268° |
| 2026-05-05 16:05 | 51.53220 | 0.01807 | 36292 ft | 415 kts | 268° |
| 2026-05-05 16:05 | 51.53223 | -0.02814 | 36079 ft | 416 kts | 268° |
| 2026-05-05 16:05 | 51.53224 | -0.07454 | 35768 ft | 416 kts | 268° |
| 2026-05-05 16:06 | 51.53224 | -0.12083 | 35331 ft | 417 kts | 268° |
| 2026-05-05 16:06 | 51.53221 | -0.16736 | 34718 ft | 421 kts | 268° |
| 2026-05-05 16:06 | 51.53216 | -0.21421 | 34049 ft | 423 kts | 268° |
| 2026-05-05 16:06 | 51.53209 | -0.26086 | 33400 ft | 424 kts | 268° |
| 2026-05-05 16:07 | 51.53202 | -0.30781 | 32944 ft | 420 kts | 268° |
| 2026-05-05 16:07 | 51.53192 | -0.35436 | 32517 ft | 416 kts | 268° |
| 2026-05-05 16:07 | 51.53179 | -0.40049 | 32090 ft | 412 kts | 268° |
| 2026-05-05 16:07 | 51.53165 | -0.44625 | 31655 ft | 409 kts | 268° |
| 2026-05-05 16:08 | 51.53149 | -0.49197 | 31223 ft | 406 kts | 268° |
| 2026-05-05 16:08 | 51.53132 | -0.53686 | 30788 ft | 403 kts | 268° |
| 2026-05-05 16:08 | 51.53112 | -0.58148 | 30346 ft | 399 kts | 268° |
| 2026-05-05 16:08 | 51.53091 | -0.62570 | 29918 ft | 396 kts | 268° |
| 2026-05-05 16:09 | 51.53068 | -0.66947 | 29484 ft | 393 kts | 268° |
| 2026-05-05 16:09 | 51.53045 | -0.71174 | 29067 ft | 390 kts | 268° |
| 2026-05-05 16:09 | 51.53020 | -0.75463 | 28641 ft | 387 kts | 268° |
| 2026-05-05 16:09 | 51.52994 | -0.79782 | 28206 ft | 384 kts | 268° |
| 2026-05-05 16:10 | 51.52966 | -0.84045 | 27778 ft | 381 kts | 268° |
| 2026-05-05 16:10 | 51.52939 | -0.88257 | 27364 ft | 378 kts | 268° |
| 2026-05-05 16:10 | 51.52908 | -0.92451 | 26937 ft | 376 kts | 268° |
| 2026-05-05 16:10 | 51.52876 | -0.96622 | 26553 ft | 372 kts | 269° |
| 2026-05-05 16:11 | 51.52843 | -1.00738 | 26154 ft | 369 kts | 269° |
| 2026-05-05 16:11 | 51.52749 | -1.12452 | 25942 ft | 330 kts | 270° |
| 2026-05-05 16:12 | 51.52837 | -1.16096 | 25946 ft | 323 kts | 274° |
| 2026-05-05 16:12 | 51.53505 | -1.23105 | 25529 ft | 316 kts | 280° |
| 2026-05-05 16:13 | 51.54733 | -1.33399 | 24279 ft | 311 kts | 280° |
| 2026-05-05 16:13 | 51.55130 | -1.36772 | 23887 ft | 309 kts | 281° |
| 2026-05-05 16:13 | 51.55525 | -1.40118 | 23509 ft | 306 kts | 281° |
| 2026-05-05 16:14 | 51.56309 | -1.46793 | 22760 ft | 302 kts | 281° |
| 2026-05-05 16:14 | 51.57069 | -1.53326 | 22024 ft | 297 kts | 281° |
| 2026-05-05 16:15 | 51.57817 | -1.59788 | 21279 ft | 294 kts | 281° |
| 2026-05-05 16:15 | 51.58521 | -1.66219 | 20538 ft | 290 kts | 277° |
| 2026-05-05 16:16 | 51.58999 | -1.72617 | 19838 ft | 286 kts | 277° |
| 2026-05-05 16:16 | 51.59455 | -1.78910 | 19135 ft | 282 kts | 277° |
| 2026-05-05 16:17 | 51.59913 | -1.85240 | 17944 ft | 297 kts | 277° |
| 2026-05-05 16:17 | 51.60153 | -1.88563 | 17331 ft | 304 kts | 277° |
| 2026-05-05 16:18 | 51.60631 | -1.95267 | 16578 ft | 300 kts | 277° |
| 2026-05-05 16:18 | 51.60865 | -1.98572 | 16198 ft | 299 kts | 277° |
| 2026-05-05 16:18 | 51.60918 | -2.05156 | 15395 ft | 299 kts | 253° |
| 2026-05-05 16:19 | 51.59990 | -2.08117 | 15010 ft | 299 kts | 234° |
| 2026-05-05 16:19 | 51.58709 | -2.10707 | 14711 ft | 297 kts | 232° |
| 2026-05-05 16:19 | 51.56115 | -2.15820 | 13942 ft | 296 kts | 232° |
| 2026-05-05 16:20 | 51.53545 | -2.20931 | 13281 ft | 291 kts | 233° |
| 2026-05-05 16:20 | 51.51038 | -2.25936 | 12347 ft | 287 kts | 233° |
| 2026-05-05 16:21 | 51.48554 | -2.30895 | 11147 ft | 284 kts | 233° |
| 2026-05-05 16:22 | 51.44895 | -2.38183 | 9521 ft | 277 kts | 233° |
| 2026-05-05 16:22 | 51.42486 | -2.42976 | 8789 ft | 278 kts | 233° |
| 2026-05-05 16:23 | 51.40538 | -2.48208 | 8078 ft | 272 kts | 257° |
| 2026-05-05 16:23 | 51.40181 | -2.51134 | 7756 ft | 270 kts | 263° |
| 2026-05-05 16:23 | 51.39624 | -2.57078 | 7118 ft | 268 kts | 263° |
| 2026-05-05 16:24 | 51.39341 | -2.59993 | 6802 ft | 268 kts | 263° |
| 2026-05-05 16:24 | 51.39047 | -2.62940 | 6451 ft | 267 kts | 263° |
| 2026-05-05 16:24 | 51.38450 | -2.68789 | 5838 ft | 265 kts | 262° |
| 2026-05-05 16:25 | 51.38151 | -2.71685 | 5531 ft | 263 kts | 262° |
| 2026-05-05 16:25 | 51.37509 | -2.77366 | 4948 ft | 257 kts | 262° |
| 2026-05-05 16:25 | 51.37183 | -2.80160 | 4657 ft | 255 kts | 262° |
| 2026-05-05 16:26 | 51.36547 | -2.85641 | 4073 ft | 251 kts | 262° |
| 2026-05-05 16:26 | 51.35913 | -2.91097 | 3491 ft | 248 kts | 262° |
| 2026-05-05 16:27 | 51.35604 | -2.93731 | 3432 ft | 235 kts | 262° |
| 2026-05-05 16:27 | 51.35308 | -2.96264 | 3408 ft | 232 kts | 263° |
| 2026-05-05 16:27 | 51.35010 | -2.98819 | 3366 ft | 232 kts | 263° |
| 2026-05-05 16:27 | 51.34715 | -3.01344 | 3299 ft | 233 kts | 263° |
| 2026-05-05 16:28 | 51.34419 | -3.03875 | 3181 ft | 232 kts | 263° |
| 2026-05-05 16:28 | 51.34121 | -3.06410 | 3043 ft | 232 kts | 263° |
| 2026-05-05 16:28 | 51.33821 | -3.08950 | 2854 ft | 233 kts | 263° |
| 2026-05-05 16:28 | 51.33523 | -3.11489 | 2496 ft | 235 kts | 263° |
| 2026-05-05 16:29 | 51.33273 | -3.14048 | 2217 ft | 231 kts | 275° |
| 2026-05-05 16:29 | 51.33672 | -3.16356 | 2178 ft | 202 kts | 302° |
| 2026-05-05 16:29 | 51.34377 | -3.18237 | 2248 ft | 189 kts | 306° |
| 2026-05-05 16:29 | 51.35044 | -3.19953 | 2030 ft | 177 kts | 306° |
| 2026-05-05 16:30 | 51.35648 | -3.21612 | 1781 ft | 168 kts | 303° |
| 2026-05-05 16:30 | 51.36164 | -3.23219 | 1550 ft | 159 kts | 301° |
| 2026-05-05 16:30 | 51.36646 | -3.24774 | 1335 ft | 151 kts | 300° |
| 2026-05-05 16:30 | 51.37098 | -3.26216 | 1178 ft | 141 kts | 299° |
| 2026-05-05 16:31 | 51.37534 | -3.27597 | 978 ft | 137 kts | 299° |
| 2026-05-05 16:31 | 51.37964 | -3.28957 | 803 ft | 137 kts | 298° |
| 2026-05-05 16:31 | 51.38393 | -3.30317 | 618 ft | 136 kts | 297° |
| 2026-05-05 16:31 | 51.38819 | -3.31664 | 434 ft | 136 kts | 296° |
| 2026-05-05 16:32 | 51.39248 | -3.33017 | 252 ft | 135 kts | 296° |
| 2026-05-05 16:32 | 51.39634 | -3.34247 | 229 ft | 80 kts | 298° |
| 2026-05-05 16:32 | 51.39757 | -3.34635 | 229 ft | 20 kts | 296° |
| 2026-05-05 16:32 | 51.39834 | -3.34726 | 229 ft | 12 kts | 23° |
| 2026-05-05 16:33 | 51.39904 | -3.34673 | 229 ft | 9 kts | 28° |
| 2026-05-05 16:33 | 51.39926 | -3.34596 | 229 ft | 7 kts | 108° |
| 2026-05-05 16:33 | 51.39906 | -3.34525 | 229 ft | 6 kts | 117° |
| 2026-05-05 16:33 | 51.39879 | -3.34440 | 229 ft | 10 kts | 116° |
| 2026-05-05 16:34 | 51.39840 | -3.34311 | 229 ft | 14 kts | 116° |
| 2026-05-05 16:34 | 51.39827 | -3.34176 | 229 ft | 10 kts | 86° |
| 2026-05-05 16:34 | 51.39836 | -3.34074 | 229 ft | 5 kts | 81° |
| 2026-05-05 16:34 | 51.39836 | -3.34069 | 229 ft | 0 kts | 81° |